sensor_id;sensor_type;location;lat;lon;timestamp;P1;durP1;ratioP1;P2;durP2;ratioP2
24107;SDS011;12280;51.362;6.694;2023-08-12T00:01:41;5.18;;;1.45;;
24107;SDS011;12280;51.362;6.694;2023-08-12T00:04:07;2.53;;;2.30;;
24107;SDS011;12280;51.362;6.694;2023-08-12T00:06:33;4.15;;;3.35;;
24107;SDS011;12280;51.362;6.694;2023-08-12T00:08:59;1.88;;;1.77;;
24107;SDS011;12280;51.362;6.694;2023-08-12T00:11:25;15.32;;;3.58;;
24107;SDS011;12280;51.362;6.694;2023-08-12T00:13:51;3.30;;;1.90;;
24107;SDS011;12280;51.362;6.694;2023-08-12T00:16:17;2.90;;;2.00;;
24107;SDS011;12280;51.362;6.694;2023-08-12T00:18:43;5.90;;;5.28;;
24107;SDS011;12280;51.362;6.694;2023-08-12T00:21:09;2.22;;;2.00;;
24107;SDS011;12280;51.362;6.694;2023-08-12T00:23:39;1.92;;;1.92;;
24107;SDS011;12280;51.362;6.694;2023-08-12T00:26:06;1.38;;;1.38;;
24107;SDS011;12280;51.362;6.694;2023-08-12T00:28:32;7.28;;;4.50;;
24107;SDS011;12280;51.362;6.694;2023-08-12T00:30:58;5.82;;;3.58;;
24107;SDS011;12280;51.362;6.694;2023-08-12T00:33:24;3.60;;;2.78;;
24107;SDS011;12280;51.362;6.694;2023-08-12T00:35:50;1.35;;;1.35;;
24107;SDS011;12280;51.362;6.694;2023-08-12T00:38:16;11.05;;;6.00;;
24107;SDS011;12280;51.362;6.694;2023-08-12T00:40:42;2.72;;;2.63;;
24107;SDS011;12280;51.362;6.694;2023-08-12T00:43:08;3.50;;;3.30;;
24107;SDS011;12280;51.362;6.694;2023-08-12T00:45:34;3.92;;;2.88;;
24107;SDS011;12280;51.362;6.694;2023-08-12T00:48:01;2.30;;;2.20;;
24107;SDS011;12280;51.362;6.694;2023-08-12T00:50:27;11.85;;;2.25;;
24107;SDS011;12280;51.362;6.694;2023-08-12T00:52:54;5.95;;;3.17;;
24107;SDS011;12280;51.362;6.694;2023-08-12T00:55:20;2.63;;;2.40;;
24107;SDS011;12280;51.362;6.694;2023-08-12T00:57:46;3.47;;;2.42;;
24107;SDS011;12280;51.362;6.694;2023-08-12T01:00:12;11.65;;;4.70;;
24107;SDS011;12280;51.362;6.694;2023-08-12T01:02:39;4.07;;;3.72;;
24107;SDS011;12280;51.362;6.694;2023-08-12T01:05:05;3.33;;;3.20;;
24107;SDS011;12280;51.362;6.694;2023-08-12T01:07:31;11.40;;;4.13;;
24107;SDS011;12280;51.362;6.694;2023-08-12T01:09:58;3.80;;;3.60;;
24107;SDS011;12280;51.362;6.694;2023-08-12T01:12:25;6.82;;;3.33;;
24107;SDS011;12280;51.362;6.694;2023-08-12T01:14:56;5.47;;;4.90;;
24107;SDS011;12280;51.362;6.694;2023-08-12T01:17:22;4.07;;;3.72;;
24107;SDS011;12280;51.362;6.694;2023-08-12T01:19:49;5.05;;;4.40;;
24107;SDS011;12280;51.362;6.694;2023-08-12T01:22:15;2.58;;;2.10;;
24107;SDS011;12280;51.362;6.694;2023-08-12T01:24:43;2.55;;;2.45;;
24107;SDS011;12280;51.362;6.694;2023-08-12T01:27:12;1.90;;;1.80;;
24107;SDS011;12280;51.362;6.694;2023-08-12T01:29:40;2.45;;;2.28;;
24107;SDS011;12280;51.362;6.694;2023-08-12T01:32:08;1.83;;;1.73;;
24107;SDS011;12280;51.362;6.694;2023-08-12T01:34:58;1.13;;;1.13;;
24107;SDS011;12280;51.362;6.694;2023-08-12T01:37:24;3.90;;;3.60;;
24107;SDS011;12280;51.362;6.694;2023-08-12T01:39:52;6.35;;;3.03;;
24107;SDS011;12280;51.362;6.694;2023-08-12T01:45:23;2.38;;;1.75;;
24107;SDS011;12280;51.362;6.694;2023-08-12T01:47:49;3.95;;;3.65;;
24107;SDS011;12280;51.362;6.694;2023-08-12T01:50:16;6.47;;;3.95;;
24107;SDS011;12280;51.362;6.694;2023-08-12T01:52:44;4.05;;;3.45;;
24107;SDS011;12280;51.362;6.694;2023-08-12T01:55:09;5.38;;;2.80;;
24107;SDS011;12280;51.362;6.694;2023-08-12T01:57:35;2.30;;;1.98;;
24107;SDS011;12280;51.362;6.694;2023-08-12T02:00:01;4.07;;;3.10;;
24107;SDS011;12280;51.362;6.694;2023-08-12T02:02:28;3.53;;;3.33;;
24107;SDS011;12280;51.362;6.694;2023-08-12T02:04:54;3.28;;;2.58;;
24107;SDS011;12280;51.362;6.694;2023-08-12T02:07:19;5.70;;;4.22;;
24107;SDS011;12280;51.362;6.694;2023-08-12T02:09:45;4.43;;;4.13;;
24107;SDS011;12280;51.362;6.694;2023-08-12T02:12:11;3.38;;;3.22;;
24107;SDS011;12280;51.362;6.694;2023-08-12T02:14:37;7.63;;;4.55;;
24107;SDS011;12280;51.362;6.694;2023-08-12T02:17:03;2.47;;;2.03;;
24107;SDS011;12280;51.362;6.694;2023-08-12T02:19:33;3.17;;;2.83;;
24107;SDS011;12280;51.362;6.694;2023-08-12T02:22:02;7.97;;;3.00;;
24107;SDS011;12280;51.362;6.694;2023-08-12T02:24:28;5.45;;;2.25;;
24107;SDS011;12280;51.362;6.694;2023-08-12T02:26:54;4.50;;;3.10;;
24107;SDS011;12280;51.362;6.694;2023-08-12T02:29:20;8.27;;;2.58;;
24107;SDS011;12280;51.362;6.694;2023-08-12T02:31:46;7.05;;;4.15;;
24107;SDS011;12280;51.362;6.694;2023-08-12T02:34:12;2.70;;;2.60;;
24107;SDS011;12280;51.362;6.694;2023-08-12T02:36:38;9.23;;;3.70;;
24107;SDS011;12280;51.362;6.694;2023-08-12T02:39:04;1.13;;;1.00;;
24107;SDS011;12280;51.362;6.694;2023-08-12T02:41:31;4.15;;;3.97;;
24107;SDS011;12280;51.362;6.694;2023-08-12T02:43:57;4.07;;;3.78;;
24107;SDS011;12280;51.362;6.694;2023-08-12T02:46:23;3.08;;;2.90;;
24107;SDS011;12280;51.362;6.694;2023-08-12T02:48:50;6.53;;;4.60;;
24107;SDS011;12280;51.362;6.694;2023-08-12T02:51:16;3.03;;;2.90;;
24107;SDS011;12280;51.362;6.694;2023-08-12T02:53:42;6.97;;;4.32;;
24107;SDS011;12280;51.362;6.694;2023-08-12T02:56:08;6.53;;;3.13;;
24107;SDS011;12280;51.362;6.694;2023-08-12T02:58:34;4.35;;;3.85;;
24107;SDS011;12280;51.362;6.694;2023-08-12T03:01:00;4.57;;;3.42;;
24107;SDS011;12280;51.362;6.694;2023-08-12T03:03:28;4.32;;;4.05;;
24107;SDS011;12280;51.362;6.694;2023-08-12T03:05:54;5.63;;;5.22;;
24107;SDS011;12280;51.362;6.694;2023-08-12T03:08:20;5.85;;;4.80;;
24107;SDS011;12280;51.362;6.694;2023-08-12T03:10:46;3.60;;;2.90;;
24107;SDS011;12280;51.362;6.694;2023-08-12T03:13:12;7.97;;;4.78;;
24107;SDS011;12280;51.362;6.694;2023-08-12T03:15:39;5.20;;;3.42;;
24107;SDS011;12280;51.362;6.694;2023-08-12T03:18:05;3.88;;;3.60;;
24107;SDS011;12280;51.362;6.694;2023-08-12T03:20:31;2.60;;;2.40;;
24107;SDS011;12280;51.362;6.694;2023-08-12T03:22:57;5.82;;;2.97;;
24107;SDS011;12280;51.362;6.694;2023-08-12T03:25:23;6.03;;;4.00;;
24107;SDS011;12280;51.362;6.694;2023-08-12T03:27:49;7.75;;;3.75;;
24107;SDS011;12280;51.362;6.694;2023-08-12T03:30:15;3.83;;;3.53;;
24107;SDS011;12280;51.362;6.694;2023-08-12T03:32:41;2.28;;;2.15;;
24107;SDS011;12280;51.362;6.694;2023-08-12T03:35:07;3.60;;;3.40;;
24107;SDS011;12280;51.362;6.694;2023-08-12T03:37:34;6.20;;;5.60;;
24107;SDS011;12280;51.362;6.694;2023-08-12T03:40:00;3.55;;;3.25;;
24107;SDS011;12280;51.362;6.694;2023-08-12T03:42:26;4.90;;;4.57;;
24107;SDS011;12280;51.362;6.694;2023-08-12T03:44:52;4.80;;;4.40;;
24107;SDS011;12280;51.362;6.694;2023-08-12T03:47:18;6.80;;;5.72;;
24107;SDS011;12280;51.362;6.694;2023-08-12T03:49:47;3.30;;;3.17;;
24107;SDS011;12280;51.362;6.694;2023-08-12T03:52:13;8.48;;;3.38;;
24107;SDS011;12280;51.362;6.694;2023-08-12T03:54:39;4.70;;;4.40;;
24107;SDS011;12280;51.362;6.694;2023-08-12T03:57:05;4.40;;;4.00;;
24107;SDS011;12280;51.362;6.694;2023-08-12T03:59:31;3.60;;;3.35;;
24107;SDS011;12280;51.362;6.694;2023-08-12T04:01:57;3.75;;;3.55;;
24107;SDS011;12280;51.362;6.694;2023-08-12T04:04:23;4.72;;;4.32;;
24107;SDS011;12280;51.362;6.694;2023-08-12T04:06:49;4.15;;;3.08;;
24107;SDS011;12280;51.362;6.694;2023-08-12T04:09:18;5.13;;;4.63;;
24107;SDS011;12280;51.362;6.694;2023-08-12T04:11:45;2.17;;;1.98;;
24107;SDS011;12280;51.362;6.694;2023-08-12T04:14:11;1.50;;;1.42;;
24107;SDS011;12280;51.362;6.694;2023-08-12T04:16:37;12.35;;;6.35;;
24107;SDS011;12280;51.362;6.694;2023-08-12T04:19:03;2.55;;;2.45;;
24107;SDS011;12280;51.362;6.694;2023-08-12T04:21:29;2.58;;;2.45;;
24107;SDS011;12280;51.362;6.694;2023-08-12T04:23:55;3.22;;;2.95;;
24107;SDS011;12280;51.362;6.694;2023-08-12T04:26:21;4.45;;;3.22;;
24107;SDS011;12280;51.362;6.694;2023-08-12T04:28:47;3.28;;;2.97;;
24107;SDS011;12280;51.362;6.694;2023-08-12T04:31:13;4.10;;;3.67;;
24107;SDS011;12280;51.362;6.694;2023-08-12T04:33:39;4.72;;;3.70;;
24107;SDS011;12280;51.362;6.694;2023-08-12T04:36:05;3.80;;;2.55;;
24107;SDS011;12280;51.362;6.694;2023-08-12T04:38:31;2.45;;;2.35;;
24107;SDS011;12280;51.362;6.694;2023-08-12T04:40:57;4.05;;;3.47;;
24107;SDS011;12280;51.362;6.694;2023-08-12T04:43:23;3.03;;;2.92;;
24107;SDS011;12280;51.362;6.694;2023-08-12T04:45:49;1.35;;;1.27;;
24107;SDS011;12280;51.362;6.694;2023-08-12T04:48:16;3.10;;;2.90;;
24107;SDS011;12280;51.362;6.694;2023-08-12T04:50:42;3.08;;;2.88;;
24107;SDS011;12280;51.362;6.694;2023-08-12T04:53:08;10.95;;;5.18;;
24107;SDS011;12280;51.362;6.694;2023-08-12T04:55:34;5.18;;;2.67;;
24107;SDS011;12280;51.362;6.694;2023-08-12T04:58:01;2.80;;;2.67;;
24107;SDS011;12280;51.362;6.694;2023-08-12T05:00:27;3.35;;;3.15;;
24107;SDS011;12280;51.362;6.694;2023-08-12T05:02:53;5.88;;;5.43;;
24107;SDS011;12280;51.362;6.694;2023-08-12T05:05:19;1.95;;;1.83;;
24107;SDS011;12280;51.362;6.694;2023-08-12T05:07:45;5.93;;;5.28;;
24107;SDS011;12280;51.362;6.694;2023-08-12T05:10:15;2.85;;;2.60;;
24107;SDS011;12280;51.362;6.694;2023-08-12T05:12:42;5.72;;;5.18;;
24107;SDS011;12280;51.362;6.694;2023-08-12T05:15:08;4.80;;;4.50;;
24107;SDS011;12280;51.362;6.694;2023-08-12T05:17:35;3.67;;;3.42;;
24107;SDS011;12280;51.362;6.694;2023-08-12T05:20:01;4.38;;;2.03;;
24107;SDS011;12280;51.362;6.694;2023-08-12T05:22:27;8.20;;;6.53;;
24107;SDS011;12280;51.362;6.694;2023-08-12T05:24:53;2.40;;;2.30;;
24107;SDS011;12280;51.362;6.694;2023-08-12T05:27:19;6.13;;;4.68;;
24107;SDS011;12280;51.362;6.694;2023-08-12T05:29:45;4.65;;;4.07;;
24107;SDS011;12280;51.362;6.694;2023-08-12T05:32:11;2.97;;;2.88;;
24107;SDS011;12280;51.362;6.694;2023-08-12T05:34:37;6.32;;;5.78;;
24107;SDS011;12280;51.362;6.694;2023-08-12T05:37:03;5.03;;;3.38;;
24107;SDS011;12280;51.362;6.694;2023-08-12T05:39:29;4.38;;;3.90;;
24107;SDS011;12280;51.362;6.694;2023-08-12T05:41:55;4.53;;;4.35;;
24107;SDS011;12280;51.362;6.694;2023-08-12T05:44:21;5.82;;;4.45;;
24107;SDS011;12280;51.362;6.694;2023-08-12T05:46:47;8.02;;;4.70;;
24107;SDS011;12280;51.362;6.694;2023-08-12T05:49:13;2.78;;;2.67;;
24107;SDS011;12280;51.362;6.694;2023-08-12T05:51:39;6.38;;;4.25;;
24107;SDS011;12280;51.362;6.694;2023-08-12T05:54:06;6.97;;;6.35;;
24107;SDS011;12280;51.362;6.694;2023-08-12T05:56:32;6.25;;;5.82;;
24107;SDS011;12280;51.362;6.694;2023-08-12T05:58:58;6.30;;;5.90;;
24107;SDS011;12280;51.362;6.694;2023-08-12T06:01:24;5.78;;;3.22;;
24107;SDS011;12280;51.362;6.694;2023-08-12T06:03:50;3.17;;;2.88;;
24107;SDS011;12280;51.362;6.694;2023-08-12T06:06:16;2.72;;;2.63;;
24107;SDS011;12280;51.362;6.694;2023-08-12T06:08:42;4.45;;;4.25;;
24107;SDS011;12280;51.362;6.694;2023-08-12T06:11:08;3.30;;;2.80;;
24107;SDS011;12280;51.362;6.694;2023-08-12T06:13:34;11.32;;;3.50;;
24107;SDS011;12280;51.362;6.694;2023-08-12T06:16:00;8.60;;;4.43;;
24107;SDS011;12280;51.362;6.694;2023-08-12T06:18:26;12.32;;;4.18;;
24107;SDS011;12280;51.362;6.694;2023-08-12T06:20:52;2.58;;;2.47;;
24107;SDS011;12280;51.362;6.694;2023-08-12T06:23:18;3.80;;;3.20;;
24107;SDS011;12280;51.362;6.694;2023-08-12T06:25:44;6.57;;;4.57;;
24107;SDS011;12280;51.362;6.694;2023-08-12T06:28:10;6.10;;;4.68;;
24107;SDS011;12280;51.362;6.694;2023-08-12T06:30:36;5.18;;;4.10;;
24107;SDS011;12280;51.362;6.694;2023-08-12T06:33:02;8.32;;;4.45;;
24107;SDS011;12280;51.362;6.694;2023-08-12T06:35:28;3.20;;;2.83;;
24107;SDS011;12280;51.362;6.694;2023-08-12T06:37:54;3.35;;;2.85;;
24107;SDS011;12280;51.362;6.694;2023-08-12T06:40:20;2.33;;;2.22;;
24107;SDS011;12280;51.362;6.694;2023-08-12T06:42:46;1.38;;;1.38;;
24107;SDS011;12280;51.362;6.694;2023-08-12T06:45:12;3.58;;;3.22;;
24107;SDS011;12280;51.362;6.694;2023-08-12T06:47:39;2.88;;;2.67;;
24107;SDS011;12280;51.362;6.694;2023-08-12T06:50:05;6.45;;;2.75;;
24107;SDS011;12280;51.362;6.694;2023-08-12T06:52:31;2.05;;;0.90;;
24107;SDS011;12280;51.362;6.694;2023-08-12T06:54:57;4.72;;;3.15;;
24107;SDS011;12280;51.362;6.694;2023-08-12T06:57:23;5.75;;;5.45;;
24107;SDS011;12280;51.362;6.694;2023-08-12T06:59:49;3.03;;;2.83;;
24107;SDS011;12280;51.362;6.694;2023-08-12T07:02:15;3.90;;;3.60;;
24107;SDS011;12280;51.362;6.694;2023-08-12T07:04:41;2.45;;;2.25;;
24107;SDS011;12280;51.362;6.694;2023-08-12T07:07:07;4.20;;;3.70;;
24107;SDS011;12280;51.362;6.694;2023-08-12T07:09:33;3.05;;;2.65;;
24107;SDS011;12280;51.362;6.694;2023-08-12T07:12:00;3.03;;;2.47;;
24107;SDS011;12280;51.362;6.694;2023-08-12T07:14:26;4.65;;;3.83;;
24107;SDS011;12280;51.362;6.694;2023-08-12T07:16:53;1.63;;;1.50;;
24107;SDS011;12280;51.362;6.694;2023-08-12T07:19:19;4.30;;;3.42;;
24107;SDS011;12280;51.362;6.694;2023-08-12T07:21:45;2.15;;;2.05;;
24107;SDS011;12280;51.362;6.694;2023-08-12T07:24:11;2.47;;;1.85;;
24107;SDS011;12280;51.362;6.694;2023-08-12T07:26:37;1.05;;;0.88;;
24107;SDS011;12280;51.362;6.694;2023-08-12T07:29:03;1.83;;;1.73;;
24107;SDS011;12280;51.362;6.694;2023-08-12T07:31:29;6.95;;;3.05;;
24107;SDS011;12280;51.362;6.694;2023-08-12T07:33:55;3.30;;;2.08;;
24107;SDS011;12280;51.362;6.694;2023-08-12T07:36:21;1.67;;;1.63;;
24107;SDS011;12280;51.362;6.694;2023-08-12T07:38:47;0.70;;;0.70;;
24107;SDS011;12280;51.362;6.694;2023-08-12T07:41:13;1.75;;;1.55;;
24107;SDS011;12280;51.362;6.694;2023-08-12T07:43:39;2.03;;;1.92;;
24107;SDS011;12280;51.362;6.694;2023-08-12T07:46:05;2.47;;;2.33;;
24107;SDS011;12280;51.362;6.694;2023-08-12T07:48:31;0.75;;;0.75;;
24107;SDS011;12280;51.362;6.694;2023-08-12T07:50:57;4.28;;;3.70;;
24107;SDS011;12280;51.362;6.694;2023-08-12T07:53:24;1.63;;;1.52;;
24107;SDS011;12280;51.362;6.694;2023-08-12T07:55:50;2.17;;;2.08;;
24107;SDS011;12280;51.362;6.694;2023-08-12T07:58:16;2.13;;;1.60;;
24107;SDS011;12280;51.362;6.694;2023-08-12T08:00:42;1.65;;;1.65;;
24107;SDS011;12280;51.362;6.694;2023-08-12T08:03:08;0.55;;;0.55;;
24107;SDS011;12280;51.362;6.694;2023-08-12T08:05:34;0.45;;;0.45;;
24107;SDS011;12280;51.362;6.694;2023-08-12T08:08:00;6.65;;;1.92;;
24107;SDS011;12280;51.362;6.694;2023-08-12T08:10:26;0.73;;;0.73;;
24107;SDS011;12280;51.362;6.694;2023-08-12T08:12:52;0.75;;;0.75;;
24107;SDS011;12280;51.362;6.694;2023-08-12T08:15:18;0.73;;;0.73;;
24107;SDS011;12280;51.362;6.694;2023-08-12T08:17:44;1.05;;;1.05;;
24107;SDS011;12280;51.362;6.694;2023-08-12T08:20:10;0.85;;;0.85;;
24107;SDS011;12280;51.362;6.694;2023-08-12T08:22:36;1.15;;;0.98;;
24107;SDS011;12280;51.362;6.694;2023-08-12T08:25:03;2.53;;;2.33;;
24107;SDS011;12280;51.362;6.694;2023-08-12T08:27:29;3.95;;;1.33;;
24107;SDS011;12280;51.362;6.694;2023-08-12T08:29:56;1.33;;;1.33;;
24107;SDS011;12280;51.362;6.694;2023-08-12T08:32:23;0.40;;;0.40;;
24107;SDS011;12280;51.362;6.694;2023-08-12T08:34:49;2.80;;;1.05;;
24107;SDS011;12280;51.362;6.694;2023-08-12T08:37:15;0.57;;;0.57;;
24107;SDS011;12280;51.362;6.694;2023-08-12T08:39:41;2.35;;;2.20;;
24107;SDS011;12280;51.362;6.694;2023-08-12T08:42:07;0.50;;;0.50;;
24107;SDS011;12280;51.362;6.694;2023-08-12T08:44:35;1.10;;;0.70;;
24107;SDS011;12280;51.362;6.694;2023-08-12T08:47:02;2.38;;;2.28;;
24107;SDS011;12280;51.362;6.694;2023-08-12T08:49:28;0.63;;;0.63;;
24107;SDS011;12280;51.362;6.694;2023-08-12T08:51:56;1.48;;;1.38;;
24107;SDS011;12280;51.362;6.694;2023-08-12T08:54:23;1.08;;;0.85;;
24107;SDS011;12280;51.362;6.694;2023-08-12T08:56:49;1.98;;;0.77;;
24107;SDS011;12280;51.362;6.694;2023-08-12T08:59:15;0.85;;;0.85;;
24107;SDS011;12280;51.362;6.694;2023-08-12T09:01:42;0.75;;;0.63;;
24107;SDS011;12280;51.362;6.694;2023-08-12T09:04:09;1.02;;;0.95;;
24107;SDS011;12280;51.362;6.694;2023-08-12T09:06:35;2.47;;;2.38;;
24107;SDS011;12280;51.362;6.694;2023-08-12T09:09:03;0.88;;;0.85;;
24107;SDS011;12280;51.362;6.694;2023-08-12T09:11:30;2.08;;;1.27;;
24107;SDS011;12280;51.362;6.694;2023-08-12T09:13:56;1.13;;;1.13;;
24107;SDS011;12280;51.362;6.694;2023-08-12T09:16:23;0.38;;;0.38;;
24107;SDS011;12280;51.362;6.694;2023-08-12T09:18:53;0.25;;;0.25;;
24107;SDS011;12280;51.362;6.694;2023-08-12T09:21:19;0.80;;;0.80;;
24107;SDS011;12280;51.362;6.694;2023-08-12T09:23:45;0.80;;;0.80;;
24107;SDS011;12280;51.362;6.694;2023-08-12T09:26:12;1.85;;;1.75;;
24107;SDS011;12280;51.362;6.694;2023-08-12T09:28:39;2.08;;;0.60;;
24107;SDS011;12280;51.362;6.694;2023-08-12T09:31:05;0.35;;;0.35;;
24107;SDS011;12280;51.362;6.694;2023-08-12T09:33:32;1.95;;;1.85;;
24107;SDS011;12280;51.362;6.694;2023-08-12T09:35:58;0.80;;;0.43;;
24107;SDS011;12280;51.362;6.694;2023-08-12T09:38:24;1.00;;;0.95;;
24107;SDS011;12280;51.362;6.694;2023-08-12T09:40:52;0.35;;;0.35;;
24107;SDS011;12280;51.362;6.694;2023-08-12T09:43:23;0.85;;;0.85;;
24107;SDS011;12280;51.362;6.694;2023-08-12T09:45:49;0.15;;;0.15;;
24107;SDS011;12280;51.362;6.694;2023-08-12T09:48:16;0.40;;;0.40;;
24107;SDS011;12280;51.362;6.694;2023-08-12T09:50:42;0.80;;;0.80;;
24107;SDS011;12280;51.362;6.694;2023-08-12T09:53:08;0.20;;;0.20;;
24107;SDS011;12280;51.362;6.694;2023-08-12T09:55:35;0.10;;;0.10;;
24107;SDS011;12280;51.362;6.694;2023-08-12T09:58:01;0.13;;;0.13;;
24107;SDS011;12280;51.362;6.694;2023-08-12T10:00:28;0.13;;;0.13;;
24107;SDS011;12280;51.362;6.694;2023-08-12T10:02:54;0.57;;;0.57;;
24107;SDS011;12280;51.362;6.694;2023-08-12T10:05:21;2.45;;;0.30;;
24107;SDS011;12280;51.362;6.694;2023-08-12T10:07:48;0.35;;;0.35;;
24107;SDS011;12280;51.362;6.694;2023-08-12T10:10:14;0.10;;;0.10;;
24107;SDS011;12280;51.362;6.694;2023-08-12T10:12:41;0.22;;;0.22;;
24107;SDS011;12280;51.362;6.694;2023-08-12T10:15:07;0.10;;;0.10;;
24107;SDS011;12280;51.362;6.694;2023-08-12T10:17:34;0.65;;;0.65;;
24107;SDS011;12280;51.362;6.694;2023-08-12T10:20:01;0.10;;;0.10;;
24107;SDS011;12280;51.362;6.694;2023-08-12T10:22:29;0.13;;;0.13;;
24107;SDS011;12280;51.362;6.694;2023-08-12T10:24:55;0.10;;;0.10;;
24107;SDS011;12280;51.362;6.694;2023-08-12T10:27:22;1.30;;;1.27;;
24107;SDS011;12280;51.362;6.694;2023-08-12T10:29:48;2.00;;;1.20;;
24107;SDS011;12280;51.362;6.694;2023-08-12T10:32:14;0.30;;;0.30;;
24107;SDS011;12280;51.362;6.694;2023-08-12T10:34:40;0.20;;;0.20;;
24107;SDS011;12280;51.362;6.694;2023-08-12T10:37:07;0.10;;;0.10;;
24107;SDS011;12280;51.362;6.694;2023-08-12T10:39:35;0.35;;;0.35;;
24107;SDS011;12280;51.362;6.694;2023-08-12T10:42:02;0.75;;;0.75;;
24107;SDS011;12280;51.362;6.694;2023-08-12T10:44:48;0.28;;;0.20;;
24107;SDS011;12280;51.362;6.694;2023-08-12T10:47:15;0.65;;;0.65;;
24107;SDS011;12280;51.362;6.694;2023-08-12T10:49:48;0.77;;;0.63;;
24107;SDS011;12280;51.362;6.694;2023-08-12T10:52:50;0.28;;;0.28;;
24107;SDS011;12280;51.362;6.694;2023-08-12T10:55:16;0.20;;;0.20;;
24107;SDS011;12280;51.362;6.694;2023-08-12T10:57:42;0.20;;;0.20;;
24107;SDS011;12280;51.362;6.694;2023-08-12T11:00:15;0.05;;;0.05;;
24107;SDS011;12280;51.362;6.694;2023-08-12T11:02:45;0.38;;;0.38;;
24107;SDS011;12280;51.362;6.694;2023-08-12T11:05:11;0.63;;;0.63;;
24107;SDS011;12280;51.362;6.694;2023-08-12T11:07:38;0.88;;;0.80;;
24107;SDS011;12280;51.362;6.694;2023-08-12T11:10:15;0.10;;;0.10;;
24107;SDS011;12280;51.362;6.694;2023-08-12T11:12:42;0.20;;;0.20;;
24107;SDS011;12280;51.362;6.694;2023-08-12T11:15:11;0.65;;;0.32;;
24107;SDS011;12280;51.362;6.694;2023-08-12T11:17:39;0.10;;;0.10;;
24107;SDS011;12280;51.362;6.694;2023-08-12T11:20:06;0.10;;;0.10;;
24107;SDS011;12280;51.362;6.694;2023-08-12T11:22:35;0.15;;;0.13;;
24107;SDS011;12280;51.362;6.694;2023-08-12T11:25:01;0.15;;;0.15;;
24107;SDS011;12280;51.362;6.694;2023-08-12T11:27:28;0.10;;;0.10;;
24107;SDS011;12280;51.362;6.694;2023-08-12T11:29:54;0.10;;;0.10;;
24107;SDS011;12280;51.362;6.694;2023-08-12T11:32:20;0.00;;;0.00;;
24107;SDS011;12280;51.362;6.694;2023-08-12T11:34:46;0.43;;;0.43;;
24107;SDS011;12280;51.362;6.694;2023-08-12T11:37:12;0.40;;;0.40;;
24107;SDS011;12280;51.362;6.694;2023-08-12T11:39:38;0.10;;;0.10;;
24107;SDS011;12280;51.362;6.694;2023-08-12T11:42:04;0.00;;;0.00;;
24107;SDS011;12280;51.362;6.694;2023-08-12T11:44:30;0.00;;;0.00;;
24107;SDS011;12280;51.362;6.694;2023-08-12T11:46:56;1.13;;;1.13;;
24107;SDS011;12280;51.362;6.694;2023-08-12T11:49:22;0.10;;;0.10;;
24107;SDS011;12280;51.362;6.694;2023-08-12T11:51:48;1.35;;;1.08;;
24107;SDS011;12280;51.362;6.694;2023-08-12T11:54:15;0.73;;;0.57;;
24107;SDS011;12280;51.362;6.694;2023-08-12T11:56:41;0.15;;;0.15;;
24107;SDS011;12280;51.362;6.694;2023-08-12T11:59:07;0.82;;;0.82;;
24107;SDS011;12280;51.362;6.694;2023-08-12T12:01:33;1.33;;;1.25;;
24107;SDS011;12280;51.362;6.694;2023-08-12T12:03:59;1.38;;;1.27;;
24107;SDS011;12280;51.362;6.694;2023-08-12T12:06:29;1.20;;;0.43;;
24107;SDS011;12280;51.362;6.694;2023-08-12T12:08:55;0.80;;;0.80;;
24107;SDS011;12280;51.362;6.694;2023-08-12T12:11:21;1.15;;;1.13;;
24107;SDS011;12280;51.362;6.694;2023-08-12T12:13:47;0.57;;;0.57;;
24107;SDS011;12280;51.362;6.694;2023-08-12T12:16:13;0.43;;;0.43;;
24107;SDS011;12280;51.362;6.694;2023-08-12T12:18:40;1.42;;;1.08;;
24107;SDS011;12280;51.362;6.694;2023-08-12T12:21:06;0.95;;;0.95;;
24107;SDS011;12280;51.362;6.694;2023-08-12T12:23:32;0.35;;;0.35;;
24107;SDS011;12280;51.362;6.694;2023-08-12T12:26:01;1.33;;;1.23;;
24107;SDS011;12280;51.362;6.694;2023-08-12T12:28:27;0.52;;;0.52;;
24107;SDS011;12280;51.362;6.694;2023-08-12T12:30:54;1.27;;;1.10;;
24107;SDS011;12280;51.362;6.694;2023-08-12T12:33:20;3.22;;;1.95;;
24107;SDS011;12280;51.362;6.694;2023-08-12T12:35:46;0.68;;;0.68;;
24107;SDS011;12280;51.362;6.694;2023-08-12T12:38:12;0.63;;;0.63;;
24107;SDS011;12280;51.362;6.694;2023-08-12T12:40:38;0.32;;;0.32;;
24107;SDS011;12280;51.362;6.694;2023-08-12T12:43:04;0.75;;;0.75;;
24107;SDS011;12280;51.362;6.694;2023-08-12T12:45:30;0.85;;;0.85;;
24107;SDS011;12280;51.362;6.694;2023-08-12T12:47:56;0.93;;;0.93;;
24107;SDS011;12280;51.362;6.694;2023-08-12T12:50:22;0.50;;;0.50;;
24107;SDS011;12280;51.362;6.694;2023-08-12T12:52:48;0.20;;;0.20;;
24107;SDS011;12280;51.362;6.694;2023-08-12T12:55:14;0.28;;;0.28;;
24107;SDS011;12280;51.362;6.694;2023-08-12T12:57:40;1.17;;;1.17;;
24107;SDS011;12280;51.362;6.694;2023-08-12T13:00:06;1.40;;;1.35;;
24107;SDS011;12280;51.362;6.694;2023-08-12T13:02:36;0.75;;;0.75;;
24107;SDS011;12280;51.362;6.694;2023-08-12T13:05:02;0.30;;;0.30;;
24107;SDS011;12280;51.362;6.694;2023-08-12T13:07:28;1.20;;;1.10;;
24107;SDS011;12280;51.362;6.694;2023-08-12T13:09:54;1.40;;;0.82;;
24107;SDS011;12280;51.362;6.694;2023-08-12T13:12:20;1.13;;;1.13;;
24107;SDS011;12280;51.362;6.694;2023-08-12T13:14:46;5.20;;;2.33;;
24107;SDS011;12280;51.362;6.694;2023-08-12T13:17:12;1.65;;;0.95;;
24107;SDS011;12280;51.362;6.694;2023-08-12T13:19:38;0.20;;;0.20;;
24107;SDS011;12280;51.362;6.694;2023-08-12T13:22:04;1.67;;;1.55;;
24107;SDS011;12280;51.362;6.694;2023-08-12T13:24:30;5.07;;;0.80;;
24107;SDS011;12280;51.362;6.694;2023-08-12T13:26:56;1.02;;;1.02;;
24107;SDS011;12280;51.362;6.694;2023-08-12T13:29:22;1.27;;;1.13;;
24107;SDS011;12280;51.362;6.694;2023-08-12T13:31:48;0.63;;;0.63;;
24107;SDS011;12280;51.362;6.694;2023-08-12T13:34:14;1.45;;;1.45;;
24107;SDS011;12280;51.362;6.694;2023-08-12T13:36:41;1.40;;;0.93;;
24107;SDS011;12280;51.362;6.694;2023-08-12T13:39:07;1.67;;;1.30;;
24107;SDS011;12280;51.362;6.694;2023-08-12T13:41:33;1.50;;;1.17;;
24107;SDS011;12280;51.362;6.694;2023-08-12T13:43:59;2.30;;;1.45;;
24107;SDS011;12280;51.362;6.694;2023-08-12T13:46:25;5.63;;;3.97;;
24107;SDS011;12280;51.362;6.694;2023-08-12T13:48:52;3.45;;;1.80;;
24107;SDS011;12280;51.362;6.694;2023-08-12T13:51:18;0.93;;;0.88;;
24107;SDS011;12280;51.362;6.694;2023-08-12T13:53:44;3.88;;;3.50;;
24107;SDS011;12280;51.362;6.694;2023-08-12T13:56:10;2.58;;;2.45;;
24107;SDS011;12280;51.362;6.694;2023-08-12T13:58:36;1.30;;;1.23;;
24107;SDS011;12280;51.362;6.694;2023-08-12T14:01:02;1.02;;;1.02;;
24107;SDS011;12280;51.362;6.694;2023-08-12T14:03:28;1.20;;;1.20;;
24107;SDS011;12280;51.362;6.694;2023-08-12T14:05:55;5.57;;;1.55;;
24107;SDS011;12280;51.362;6.694;2023-08-12T14:08:21;0.20;;;0.20;;
24107;SDS011;12280;51.362;6.694;2023-08-12T14:10:47;0.13;;;0.13;;
24107;SDS011;12280;51.362;6.694;2023-08-12T14:13:15;0.50;;;0.50;;
24107;SDS011;12280;51.362;6.694;2023-08-12T14:15:41;0.28;;;0.28;;
24107;SDS011;12280;51.362;6.694;2023-08-12T14:18:07;1.10;;;1.05;;
24107;SDS011;12280;51.362;6.694;2023-08-12T14:20:33;0.75;;;0.22;;
24107;SDS011;12280;51.362;6.694;2023-08-12T14:22:59;4.50;;;1.27;;
24107;SDS011;12280;51.362;6.694;2023-08-12T14:25:25;0.30;;;0.30;;
24107;SDS011;12280;51.362;6.694;2023-08-12T14:27:51;0.13;;;0.13;;
24107;SDS011;12280;51.362;6.694;2023-08-12T14:30:17;0.03;;;0.03;;
24107;SDS011;12280;51.362;6.694;2023-08-12T14:32:44;0.88;;;0.68;;
24107;SDS011;12280;51.362;6.694;2023-08-12T14:35:10;0.13;;;0.13;;
24107;SDS011;12280;51.362;6.694;2023-08-12T14:37:36;0.45;;;0.45;;
24107;SDS011;12280;51.362;6.694;2023-08-12T14:40:02;0.45;;;0.45;;
24107;SDS011;12280;51.362;6.694;2023-08-12T14:42:29;0.90;;;0.90;;
24107;SDS011;12280;51.362;6.694;2023-08-12T14:44:55;0.32;;;0.32;;
24107;SDS011;12280;51.362;6.694;2023-08-12T14:47:21;0.55;;;0.55;;